Terminal Aerodrome Forecast
Issued by NWS

Home | Current Version | Previous Version | Graphics & Text | Print | Product List | Glossary On
Versions: 1 2 3 4 5 6 7 8 9 10 11 12 13 14 15 16 17 18 19
000
FTUS43 KGRB 141100
TAFCWA
TAF
KCWA 141120Z 1412/1512 34013G23KT 1 1/2SM -SN BR BKN009 OVC012
     FM141300 33016G26KT 6SM -SN SCT012 BKN020
      TEMPO 1413/1414 3SM -SN BKN012
     FM141700 32015G25KT P6SM BKN035
     FM142300 32009KT P6SM BKN045
     FM150300 32006KT P6SM SKC=

USA.gov is the U.S. government's official web portal to all federal, state and local government web resources and services.